sensor_id;sensor_type;location;lat;lon;timestamp;P1;durP1;ratioP1;P2;durP2;ratioP2
21107;SDS011;10712;52.944;9.098;2022-08-21T00:02:03;2.55;;;1.80;;
21107;SDS011;10712;52.944;9.098;2022-08-21T00:04:29;3.70;;;1.50;;
21107;SDS011;10712;52.944;9.098;2022-08-21T00:06:55;2.92;;;1.50;;
21107;SDS011;10712;52.944;9.098;2022-08-21T00:09:23;2.05;;;1.17;;
21107;SDS011;10712;52.944;9.098;2022-08-21T00:11:49;1.77;;;1.20;;
21107;SDS011;10712;52.944;9.098;2022-08-21T00:14:15;3.05;;;1.50;;
21107;SDS011;10712;52.944;9.098;2022-08-21T00:16:41;3.42;;;1.67;;
21107;SDS011;10712;52.944;9.098;2022-08-21T00:19:08;4.00;;;1.70;;
21107;SDS011;10712;52.944;9.098;2022-08-21T00:21:34;2.17;;;1.50;;
21107;SDS011;10712;52.944;9.098;2022-08-21T00:24:00;4.03;;;1.50;;
21107;SDS011;10712;52.944;9.098;2022-08-21T00:26:27;3.13;;;1.60;;
21107;SDS011;10712;52.944;9.098;2022-08-21T00:28:53;3.35;;;1.85;;
21107;SDS011;10712;52.944;9.098;2022-08-21T00:31:19;3.80;;;1.60;;
21107;SDS011;10712;52.944;9.098;2022-08-21T00:33:45;1.42;;;1.10;;
21107;SDS011;10712;52.944;9.098;2022-08-21T00:36:11;3.10;;;1.33;;
21107;SDS011;10712;52.944;9.098;2022-08-21T00:38:38;2.00;;;0.95;;
21107;SDS011;10712;52.944;9.098;2022-08-21T00:41:05;1.85;;;1.40;;
21107;SDS011;10712;52.944;9.098;2022-08-21T00:43:35;1.45;;;1.10;;
21107;SDS011;10712;52.944;9.098;2022-08-21T00:46:04;2.47;;;1.48;;
21107;SDS011;10712;52.944;9.098;2022-08-21T00:48:31;2.17;;;1.13;;
21107;SDS011;10712;52.944;9.098;2022-08-21T00:51:03;2.83;;;1.48;;
21107;SDS011;10712;52.944;9.098;2022-08-21T00:53:37;3.42;;;1.30;;
21107;SDS011;10712;52.944;9.098;2022-08-21T00:56:09;4.00;;;1.42;;
21107;SDS011;10712;52.944;9.098;2022-08-21T00:58:39;2.72;;;1.48;;
21107;SDS011;10712;52.944;9.098;2022-08-21T01:01:08;4.00;;;1.45;;
21107;SDS011;10712;52.944;9.098;2022-08-21T01:03:34;4.78;;;1.52;;
21107;SDS011;10712;52.944;9.098;2022-08-21T01:06:01;2.30;;;1.60;;
21107;SDS011;10712;52.944;9.098;2022-08-21T01:08:29;3.05;;;1.77;;
21107;SDS011;10712;52.944;9.098;2022-08-21T01:10:57;3.15;;;1.50;;
21107;SDS011;10712;52.944;9.098;2022-08-21T01:13:26;2.22;;;1.58;;
21107;SDS011;10712;52.944;9.098;2022-08-21T01:15:56;5.38;;;2.28;;
21107;SDS011;10712;52.944;9.098;2022-08-21T01:18:26;3.83;;;1.50;;
21107;SDS011;10712;52.944;9.098;2022-08-21T01:21:12;4.60;;;1.50;;
21107;SDS011;10712;52.944;9.098;2022-08-21T01:23:43;2.97;;;1.52;;
21107;SDS011;10712;52.944;9.098;2022-08-21T01:26:19;2.65;;;1.80;;
21107;SDS011;10712;52.944;9.098;2022-08-21T01:31:30;3.03;;;1.80;;
21107;SDS011;10712;52.944;9.098;2022-08-21T01:33:58;3.50;;;2.22;;
21107;SDS011;10712;52.944;9.098;2022-08-21T01:36:25;3.55;;;1.95;;
21107;SDS011;10712;52.944;9.098;2022-08-21T01:38:51;3.10;;;1.88;;
21107;SDS011;10712;52.944;9.098;2022-08-21T01:41:17;4.60;;;1.77;;
21107;SDS011;10712;52.944;9.098;2022-08-21T01:43:43;4.15;;;1.50;;
21107;SDS011;10712;52.944;9.098;2022-08-21T01:46:10;3.80;;;1.73;;
21107;SDS011;10712;52.944;9.098;2022-08-21T01:48:37;2.72;;;1.75;;
21107;SDS011;10712;52.944;9.098;2022-08-21T01:51:04;4.85;;;1.90;;
21107;SDS011;10712;52.944;9.098;2022-08-21T01:53:31;2.25;;;1.63;;
21107;SDS011;10712;52.944;9.098;2022-08-21T01:56:01;3.30;;;1.52;;
21107;SDS011;10712;52.944;9.098;2022-08-21T01:58:29;2.72;;;1.55;;
21107;SDS011;10712;52.944;9.098;2022-08-21T02:00:55;2.55;;;1.30;;
21107;SDS011;10712;52.944;9.098;2022-08-21T02:03:21;3.50;;;1.77;;
21107;SDS011;10712;52.944;9.098;2022-08-21T02:05:47;3.60;;;1.88;;
21107;SDS011;10712;52.944;9.098;2022-08-21T02:08:12;4.47;;;1.80;;
21107;SDS011;10712;52.944;9.098;2022-08-21T02:10:38;2.78;;;1.77;;
21107;SDS011;10712;52.944;9.098;2022-08-21T02:13:06;5.75;;;2.00;;
21107;SDS011;10712;52.944;9.098;2022-08-21T02:15:33;4.40;;;1.97;;
21107;SDS011;10712;52.944;9.098;2022-08-21T02:18:00;4.85;;;1.98;;
21107;SDS011;10712;52.944;9.098;2022-08-21T02:20:33;5.07;;;2.00;;
21107;SDS011;10712;52.944;9.098;2022-08-21T02:23:04;2.90;;;2.13;;
21107;SDS011;10712;52.944;9.098;2022-08-21T02:25:32;3.95;;;1.63;;
21107;SDS011;10712;52.944;9.098;2022-08-21T02:28:01;3.05;;;1.88;;
21107;SDS011;10712;52.944;9.098;2022-08-21T02:30:35;2.20;;;1.87;;
21107;SDS011;10712;52.944;9.098;2022-08-21T02:33:07;3.13;;;2.03;;
21107;SDS011;10712;52.944;9.098;2022-08-21T02:35:35;5.30;;;1.70;;
21107;SDS011;10712;52.944;9.098;2022-08-21T02:38:05;6.97;;;2.00;;
21107;SDS011;10712;52.944;9.098;2022-08-21T02:40:34;2.95;;;1.60;;
21107;SDS011;10712;52.944;9.098;2022-08-21T02:43:04;2.95;;;2.00;;
21107;SDS011;10712;52.944;9.098;2022-08-21T02:45:32;5.60;;;2.30;;
21107;SDS011;10712;52.944;9.098;2022-08-21T02:48:01;5.00;;;1.50;;
21107;SDS011;10712;52.944;9.098;2022-08-21T02:50:32;1.87;;;1.53;;
21107;SDS011;10712;52.944;9.098;2022-08-21T02:53:03;2.72;;;1.70;;
21107;SDS011;10712;52.944;9.098;2022-08-21T02:55:31;2.40;;;1.60;;
21107;SDS011;10712;52.944;9.098;2022-08-21T02:58:00;4.18;;;1.80;;
21107;SDS011;10712;52.944;9.098;2022-08-21T03:00:29;4.22;;;2.00;;
21107;SDS011;10712;52.944;9.098;2022-08-21T03:02:56;3.42;;;1.88;;
21107;SDS011;10712;52.944;9.098;2022-08-21T03:05:24;2.38;;;1.50;;
21107;SDS011;10712;52.944;9.098;2022-08-21T03:07:56;2.58;;;1.63;;
21107;SDS011;10712;52.944;9.098;2022-08-21T03:10:24;3.90;;;2.28;;
21107;SDS011;10712;52.944;9.098;2022-08-21T03:12:51;3.17;;;1.73;;
21107;SDS011;10712;52.944;9.098;2022-08-21T03:15:18;2.33;;;1.67;;
21107;SDS011;10712;52.944;9.098;2022-08-21T03:17:47;6.47;;;2.63;;
21107;SDS011;10712;52.944;9.098;2022-08-21T03:20:14;3.33;;;1.92;;
21107;SDS011;10712;52.944;9.098;2022-08-21T03:22:43;1.88;;;1.65;;
21107;SDS011;10712;52.944;9.098;2022-08-21T03:25:09;3.53;;;1.98;;
21107;SDS011;10712;52.944;9.098;2022-08-21T03:27:35;3.67;;;2.17;;
21107;SDS011;10712;52.944;9.098;2022-08-21T03:30:03;4.00;;;2.40;;
21107;SDS011;10712;52.944;9.098;2022-08-21T03:32:31;4.90;;;2.30;;
21107;SDS011;10712;52.944;9.098;2022-08-21T03:34:58;3.53;;;2.67;;
21107;SDS011;10712;52.944;9.098;2022-08-21T03:37:25;3.25;;;2.00;;
21107;SDS011;10712;52.944;9.098;2022-08-21T03:39:52;1.95;;;1.75;;
21107;SDS011;10712;52.944;9.098;2022-08-21T03:42:18;2.70;;;2.15;;
21107;SDS011;10712;52.944;9.098;2022-08-21T03:44:44;3.17;;;1.88;;
21107;SDS011;10712;52.944;9.098;2022-08-21T03:47:10;3.55;;;2.40;;
21107;SDS011;10712;52.944;9.098;2022-08-21T03:49:36;4.03;;;2.50;;
21107;SDS011;10712;52.944;9.098;2022-08-21T03:52:03;2.53;;;2.00;;
21107;SDS011;10712;52.944;9.098;2022-08-21T03:54:30;3.08;;;2.53;;
21107;SDS011;10712;52.944;9.098;2022-08-21T03:56:56;3.17;;;2.30;;
21107;SDS011;10712;52.944;9.098;2022-08-21T03:59:22;5.32;;;2.53;;
21107;SDS011;10712;52.944;9.098;2022-08-21T04:01:53;2.72;;;2.13;;
21107;SDS011;10712;52.944;9.098;2022-08-21T04:04:21;3.47;;;2.20;;
21107;SDS011;10712;52.944;9.098;2022-08-21T04:06:47;3.30;;;2.40;;
21107;SDS011;10712;52.944;9.098;2022-08-21T04:09:15;2.67;;;2.25;;
21107;SDS011;10712;52.944;9.098;2022-08-21T04:11:42;4.78;;;3.13;;
21107;SDS011;10712;52.944;9.098;2022-08-21T04:14:08;3.40;;;2.30;;
21107;SDS011;10712;52.944;9.098;2022-08-21T04:16:34;4.45;;;2.63;;
21107;SDS011;10712;52.944;9.098;2022-08-21T04:19:00;3.28;;;2.22;;
21107;SDS011;10712;52.944;9.098;2022-08-21T04:21:26;5.15;;;3.05;;
21107;SDS011;10712;52.944;9.098;2022-08-21T04:23:56;3.60;;;2.42;;
21107;SDS011;10712;52.944;9.098;2022-08-21T04:26:23;3.47;;;2.15;;
21107;SDS011;10712;52.944;9.098;2022-08-21T04:28:49;2.92;;;2.60;;
21107;SDS011;10712;52.944;9.098;2022-08-21T04:31:14;4.82;;;1.90;;
21107;SDS011;10712;52.944;9.098;2022-08-21T04:33:40;2.00;;;1.80;;
21107;SDS011;10712;52.944;9.098;2022-08-21T04:36:06;3.08;;;2.25;;
21107;SDS011;10712;52.944;9.098;2022-08-21T04:38:33;4.05;;;2.50;;
21107;SDS011;10712;52.944;9.098;2022-08-21T04:40:59;4.55;;;2.40;;
21107;SDS011;10712;52.944;9.098;2022-08-21T04:43:25;2.72;;;2.53;;
21107;SDS011;10712;52.944;9.098;2022-08-21T04:45:51;9.80;;;3.03;;
21107;SDS011;10712;52.944;9.098;2022-08-21T04:48:19;3.67;;;2.72;;
21107;SDS011;10712;52.944;9.098;2022-08-21T04:53:26;2.80;;;2.05;;
21107;SDS011;10712;52.944;9.098;2022-08-21T04:56:02;4.32;;;2.80;;
21107;SDS011;10712;52.944;9.098;2022-08-21T04:58:33;3.80;;;2.95;;
21107;SDS011;10712;52.944;9.098;2022-08-21T05:01:03;3.67;;;2.22;;
21107;SDS011;10712;52.944;9.098;2022-08-21T05:03:33;3.20;;;2.60;;
21107;SDS011;10712;52.944;9.098;2022-08-21T05:06:03;2.63;;;2.40;;
21107;SDS011;10712;52.944;9.098;2022-08-21T05:08:32;5.97;;;3.20;;
21107;SDS011;10712;52.944;9.098;2022-08-21T05:10:59;4.90;;;2.22;;
21107;SDS011;10712;52.944;9.098;2022-08-21T05:13:25;6.72;;;3.83;;
21107;SDS011;10712;52.944;9.098;2022-08-21T05:15:52;5.70;;;2.97;;
21107;SDS011;10712;52.944;9.098;2022-08-21T05:18:18;2.65;;;2.20;;
21107;SDS011;10712;52.944;9.098;2022-08-21T05:20:44;2.85;;;2.33;;
21107;SDS011;10712;52.944;9.098;2022-08-21T05:23:12;5.47;;;3.05;;
21107;SDS011;10712;52.944;9.098;2022-08-21T05:25:39;3.05;;;2.38;;
21107;SDS011;10712;52.944;9.098;2022-08-21T05:28:06;3.22;;;2.30;;
21107;SDS011;10712;52.944;9.098;2022-08-21T05:30:32;2.60;;;1.80;;
21107;SDS011;10712;52.944;9.098;2022-08-21T05:33:01;3.15;;;2.45;;
21107;SDS011;10712;52.944;9.098;2022-08-21T05:35:32;3.38;;;2.58;;
21107;SDS011;10712;52.944;9.098;2022-08-21T05:37:59;2.70;;;1.98;;
21107;SDS011;10712;52.944;9.098;2022-08-21T05:40:25;3.20;;;2.63;;
21107;SDS011;10712;52.944;9.098;2022-08-21T05:42:53;4.72;;;2.42;;
21107;SDS011;10712;52.944;9.098;2022-08-21T05:45:24;2.00;;;1.77;;
21107;SDS011;10712;52.944;9.098;2022-08-21T05:47:53;2.25;;;1.80;;
21107;SDS011;10712;52.944;9.098;2022-08-21T05:50:19;3.80;;;2.28;;
21107;SDS011;10712;52.944;9.098;2022-08-21T05:52:45;5.45;;;2.72;;
21107;SDS011;10712;52.944;9.098;2022-08-21T05:55:11;2.38;;;2.05;;
21107;SDS011;10712;52.944;9.098;2022-08-21T05:57:37;2.47;;;2.25;;
21107;SDS011;10712;52.944;9.098;2022-08-21T06:00:06;3.03;;;2.38;;
21107;SDS011;10712;52.944;9.098;2022-08-21T06:02:38;5.18;;;2.88;;
21107;SDS011;10712;52.944;9.098;2022-08-21T06:05:06;2.40;;;2.20;;
21107;SDS011;10712;52.944;9.098;2022-08-21T06:07:32;5.72;;;2.10;;
21107;SDS011;10712;52.944;9.098;2022-08-21T06:09:58;4.15;;;2.45;;
21107;SDS011;10712;52.944;9.098;2022-08-21T06:12:25;2.80;;;1.63;;
21107;SDS011;10712;52.944;9.098;2022-08-21T06:14:50;1.90;;;1.77;;
21107;SDS011;10712;52.944;9.098;2022-08-21T06:17:17;2.53;;;1.90;;
21107;SDS011;10712;52.944;9.098;2022-08-21T06:19:43;4.25;;;2.40;;
21107;SDS011;10712;52.944;9.098;2022-08-21T06:22:09;5.03;;;3.00;;
21107;SDS011;10712;52.944;9.098;2022-08-21T06:24:35;5.55;;;2.72;;
21107;SDS011;10712;52.944;9.098;2022-08-21T06:27:07;3.65;;;2.60;;
21107;SDS011;10712;52.944;9.098;2022-08-21T06:29:34;3.17;;;1.83;;
21107;SDS011;10712;52.944;9.098;2022-08-21T06:32:00;4.95;;;3.15;;
21107;SDS011;10712;52.944;9.098;2022-08-21T06:34:27;4.10;;;3.70;;
21107;SDS011;10712;52.944;9.098;2022-08-21T06:36:53;7.90;;;3.70;;
21107;SDS011;10712;52.944;9.098;2022-08-21T06:39:19;6.93;;;3.50;;
21107;SDS011;10712;52.944;9.098;2022-08-21T06:41:45;6.50;;;4.85;;
21107;SDS011;10712;52.944;9.098;2022-08-21T06:44:11;6.55;;;3.45;;
21107;SDS011;10712;52.944;9.098;2022-08-21T06:46:37;8.18;;;4.80;;
21107;SDS011;10712;52.944;9.098;2022-08-21T06:49:03;5.22;;;3.45;;
21107;SDS011;10712;52.944;9.098;2022-08-21T06:51:29;8.30;;;4.80;;
21107;SDS011;10712;52.944;9.098;2022-08-21T06:53:55;7.30;;;4.75;;
21107;SDS011;10712;52.944;9.098;2022-08-21T06:56:21;5.35;;;4.28;;
21107;SDS011;10712;52.944;9.098;2022-08-21T06:58:48;7.65;;;4.47;;
21107;SDS011;10712;52.944;9.098;2022-08-21T07:01:13;7.85;;;5.40;;
21107;SDS011;10712;52.944;9.098;2022-08-21T07:03:40;6.22;;;4.93;;
21107;SDS011;10712;52.944;9.098;2022-08-21T07:06:08;11.27;;;6.18;;
21107;SDS011;10712;52.944;9.098;2022-08-21T07:08:36;9.23;;;5.60;;
21107;SDS011;10712;52.944;9.098;2022-08-21T07:11:04;11.10;;;5.40;;
21107;SDS011;10712;52.944;9.098;2022-08-21T07:13:40;8.95;;;4.03;;
21107;SDS011;10712;52.944;9.098;2022-08-21T07:16:06;9.65;;;5.35;;
21107;SDS011;10712;52.944;9.098;2022-08-21T07:18:33;10.57;;;5.97;;
21107;SDS011;10712;52.944;9.098;2022-08-21T07:21:00;9.00;;;4.45;;
21107;SDS011;10712;52.944;9.098;2022-08-21T07:23:40;8.65;;;4.80;;
21107;SDS011;10712;52.944;9.098;2022-08-21T07:26:15;12.48;;;5.18;;
21107;SDS011;10712;52.944;9.098;2022-08-21T07:28:44;12.02;;;6.10;;
21107;SDS011;10712;52.944;9.098;2022-08-21T07:31:10;11.60;;;5.40;;
21107;SDS011;10712;52.944;9.098;2022-08-21T07:33:42;10.40;;;5.40;;
21107;SDS011;10712;52.944;9.098;2022-08-21T07:36:09;12.40;;;4.82;;
21107;SDS011;10712;52.944;9.098;2022-08-21T07:38:36;11.80;;;5.03;;
21107;SDS011;10712;52.944;9.098;2022-08-21T07:41:12;11.20;;;4.40;;
21107;SDS011;10712;52.944;9.098;2022-08-21T07:46:10;8.40;;;4.72;;
21107;SDS011;10712;52.944;9.098;2022-08-21T07:48:37;9.32;;;4.50;;
21107;SDS011;10712;52.944;9.098;2022-08-21T07:51:08;9.55;;;3.67;;
21107;SDS011;10712;52.944;9.098;2022-08-21T07:53:39;5.97;;;4.18;;
21107;SDS011;10712;52.944;9.098;2022-08-21T07:56:05;9.75;;;4.05;;
21107;SDS011;10712;52.944;9.098;2022-08-21T07:58:36;9.93;;;3.72;;
21107;SDS011;10712;52.944;9.098;2022-08-21T08:01:01;3.78;;;2.85;;
21107;SDS011;10712;52.944;9.098;2022-08-21T08:03:27;9.73;;;3.72;;
21107;SDS011;10712;52.944;9.098;2022-08-21T08:05:53;8.18;;;4.10;;
21107;SDS011;10712;52.944;9.098;2022-08-21T08:08:19;4.75;;;3.47;;
21107;SDS011;10712;52.944;9.098;2022-08-21T08:10:45;8.60;;;3.75;;
21107;SDS011;10712;52.944;9.098;2022-08-21T08:13:11;10.15;;;3.78;;
21107;SDS011;10712;52.944;9.098;2022-08-21T08:15:37;8.25;;;3.78;;
21107;SDS011;10712;52.944;9.098;2022-08-21T08:18:03;6.13;;;2.50;;
21107;SDS011;10712;52.944;9.098;2022-08-21T08:20:29;8.75;;;3.40;;
21107;SDS011;10712;52.944;9.098;2022-08-21T08:22:55;9.20;;;2.90;;
21107;SDS011;10712;52.944;9.098;2022-08-21T08:25:22;7.05;;;2.78;;
21107;SDS011;10712;52.944;9.098;2022-08-21T08:27:49;4.88;;;1.95;;
21107;SDS011;10712;52.944;9.098;2022-08-21T08:30:16;5.55;;;2.25;;
21107;SDS011;10712;52.944;9.098;2022-08-21T08:32:45;4.60;;;1.98;;
21107;SDS011;10712;52.944;9.098;2022-08-21T08:35:11;3.13;;;1.63;;
21107;SDS011;10712;52.944;9.098;2022-08-21T08:37:38;3.65;;;1.90;;
21107;SDS011;10712;52.944;9.098;2022-08-21T08:40:06;4.68;;;1.50;;
21107;SDS011;10712;52.944;9.098;2022-08-21T08:42:47;3.40;;;1.60;;
21107;SDS011;10712;52.944;9.098;2022-08-21T08:45:16;5.47;;;2.22;;
21107;SDS011;10712;52.944;9.098;2022-08-21T08:47:59;4.28;;;1.85;;
21107;SDS011;10712;52.944;9.098;2022-08-21T08:50:38;8.40;;;1.60;;
21107;SDS011;10712;52.944;9.098;2022-08-21T08:53:22;3.63;;;1.35;;
21107;SDS011;10712;52.944;9.098;2022-08-21T08:56:02;4.57;;;1.38;;
21107;SDS011;10712;52.944;9.098;2022-08-21T08:58:33;27.40;;;2.25;;
21107;SDS011;10712;52.944;9.098;2022-08-21T09:01:06;6.85;;;1.65;;
21107;SDS011;10712;52.944;9.098;2022-08-21T09:03:45;6.25;;;2.15;;
21107;SDS011;10712;52.944;9.098;2022-08-21T09:06:28;4.15;;;1.40;;
21107;SDS011;10712;52.944;9.098;2022-08-21T09:09:56;4.78;;;1.60;;
21107;SDS011;10712;52.944;9.098;2022-08-21T09:15:55;2.92;;;1.20;;
21107;SDS011;10712;52.944;9.098;2022-08-21T09:24:43;4.68;;;1.73;;
21107;SDS011;10712;52.944;9.098;2022-08-21T09:27:46;4.30;;;1.60;;
21107;SDS011;10712;52.944;9.098;2022-08-21T09:30:13;5.38;;;2.10;;
21107;SDS011;10712;52.944;9.098;2022-08-21T09:32:40;4.30;;;1.80;;
21107;SDS011;10712;52.944;9.098;2022-08-21T09:35:08;4.07;;;1.55;;
21107;SDS011;10712;52.944;9.098;2022-08-21T09:38:06;4.88;;;1.60;;
21107;SDS011;10712;52.944;9.098;2022-08-21T09:40:35;7.50;;;2.33;;
21107;SDS011;10712;52.944;9.098;2022-08-21T09:43:10;6.03;;;1.85;;
21107;SDS011;10712;52.944;9.098;2022-08-21T09:45:44;9.70;;;1.90;;
21107;SDS011;10712;52.944;9.098;2022-08-21T09:48:23;5.78;;;2.25;;
21107;SDS011;10712;52.944;9.098;2022-08-21T09:50:50;8.23;;;2.60;;
21107;SDS011;10712;52.944;9.098;2022-08-21T09:53:27;3.90;;;2.30;;
21107;SDS011;10712;52.944;9.098;2022-08-21T09:58:47;9.50;;;2.55;;
21107;SDS011;10712;52.944;9.098;2022-08-21T10:01:17;7.70;;;2.05;;
21107;SDS011;10712;52.944;9.098;2022-08-21T10:04:01;5.45;;;1.67;;
21107;SDS011;10712;52.944;9.098;2022-08-21T10:06:37;6.65;;;1.80;;
21107;SDS011;10712;52.944;9.098;2022-08-21T10:09:10;4.68;;;1.60;;
21107;SDS011;10712;52.944;9.098;2022-08-21T10:11:48;6.00;;;2.17;;
21107;SDS011;10712;52.944;9.098;2022-08-21T10:17:30;5.90;;;1.67;;
21107;SDS011;10712;52.944;9.098;2022-08-21T10:28:59;9.13;;;2.03;;
21107;SDS011;10712;52.944;9.098;2022-08-21T10:31:50;6.75;;;2.13;;
21107;SDS011;10712;52.944;9.098;2022-08-21T10:48:33;4.20;;;1.30;;
21107;SDS011;10712;52.944;9.098;2022-08-21T10:53:55;4.00;;;1.33;;
21107;SDS011;10712;52.944;9.098;2022-08-21T10:56:34;3.28;;;1.30;;
21107;SDS011;10712;52.944;9.098;2022-08-21T11:01:53;4.70;;;1.30;;
21107;SDS011;10712;52.944;9.098;2022-08-21T11:07:30;7.53;;;1.85;;
21107;SDS011;10712;52.944;9.098;2022-08-21T11:10:04;7.55;;;2.05;;
21107;SDS011;10712;52.944;9.098;2022-08-21T11:13:00;7.70;;;2.00;;
21107;SDS011;10712;52.944;9.098;2022-08-21T11:15:48;4.53;;;1.70;;
21107;SDS011;10712;52.944;9.098;2022-08-21T11:18:31;5.65;;;1.60;;
21107;SDS011;10712;52.944;9.098;2022-08-21T11:21:27;5.97;;;1.50;;
21107;SDS011;10712;52.944;9.098;2022-08-21T11:30:05;7.38;;;1.80;;
21107;SDS011;10712;52.944;9.098;2022-08-21T11:45:51;4.13;;;1.33;;
21107;SDS011;10712;52.944;9.098;2022-08-21T11:54:56;5.07;;;1.10;;
21107;SDS011;10712;52.944;9.098;2022-08-21T11:58:14;1.38;;;0.82;;
21107;SDS011;10712;52.944;9.098;2022-08-21T12:01:04;2.67;;;1.27;;
21107;SDS011;10712;52.944;9.098;2022-08-21T12:03:59;3.00;;;1.35;;
21107;SDS011;10712;52.944;9.098;2022-08-21T12:06:52;3.00;;;1.40;;
21107;SDS011;10712;52.944;9.098;2022-08-21T12:11:50;4.30;;;1.58;;
21107;SDS011;10712;52.944;9.098;2022-08-21T12:14:38;4.65;;;0.95;;
21107;SDS011;10712;52.944;9.098;2022-08-21T12:17:09;4.15;;;1.30;;
21107;SDS011;10712;52.944;9.098;2022-08-21T12:20:01;4.27;;;1.63;;
21107;SDS011;10712;52.944;9.098;2022-08-21T12:22:47;4.03;;;1.55;;
21107;SDS011;10712;52.944;9.098;2022-08-21T12:25:35;2.88;;;1.20;;
21107;SDS011;10712;52.944;9.098;2022-08-21T12:28:23;2.78;;;1.50;;
21107;SDS011;10712;52.944;9.098;2022-08-21T12:30:51;3.65;;;1.38;;
21107;SDS011;10712;52.944;9.098;2022-08-21T12:35:52;2.58;;;1.33;;
21107;SDS011;10712;52.944;9.098;2022-08-21T12:41:47;3.53;;;1.10;;
21107;SDS011;10712;52.944;9.098;2022-08-21T12:44:42;5.50;;;1.55;;
21107;SDS011;10712;52.944;9.098;2022-08-21T12:47:43;6.07;;;1.38;;
21107;SDS011;10712;52.944;9.098;2022-08-21T12:53:04;3.55;;;1.48;;
21107;SDS011;10712;52.944;9.098;2022-08-21T12:55:40;4.00;;;1.30;;
21107;SDS011;10712;52.944;9.098;2022-08-21T12:58:16;3.33;;;1.48;;
21107;SDS011;10712;52.944;9.098;2022-08-21T13:00:53;3.53;;;1.35;;
21107;SDS011;10712;52.944;9.098;2022-08-21T13:03:29;2.00;;;1.20;;
21107;SDS011;10712;52.944;9.098;2022-08-21T13:05:57;2.72;;;0.95;;
21107;SDS011;10712;52.944;9.098;2022-08-21T13:08:24;4.18;;;1.23;;
21107;SDS011;10712;52.944;9.098;2022-08-21T13:10:56;4.55;;;1.45;;
21107;SDS011;10712;52.944;9.098;2022-08-21T13:13:27;2.95;;;1.17;;
21107;SDS011;10712;52.944;9.098;2022-08-21T13:15:59;5.68;;;1.30;;
21107;SDS011;10712;52.944;9.098;2022-08-21T13:18:31;3.90;;;1.75;;
21107;SDS011;10712;52.944;9.098;2022-08-21T13:21:34;4.47;;;1.52;;
21107;SDS011;10712;52.944;9.098;2022-08-21T13:24:12;4.18;;;1.80;;
21107;SDS011;10712;52.944;9.098;2022-08-21T13:26:50;3.13;;;1.00;;
21107;SDS011;10712;52.944;9.098;2022-08-21T13:29:18;5.57;;;1.70;;
21107;SDS011;10712;52.944;9.098;2022-08-21T13:31:53;2.55;;;1.63;;
21107;SDS011;10712;52.944;9.098;2022-08-21T13:34:29;4.70;;;1.25;;
21107;SDS011;10712;52.944;9.098;2022-08-21T13:37:02;1.77;;;1.00;;
21107;SDS011;10712;52.944;9.098;2022-08-21T13:39:33;3.80;;;1.13;;
21107;SDS011;10712;52.944;9.098;2022-08-21T13:42:00;6.15;;;1.75;;
21107;SDS011;10712;52.944;9.098;2022-08-21T13:47:19;2.45;;;1.08;;
21107;SDS011;10712;52.944;9.098;2022-08-21T13:49:46;4.90;;;1.75;;
21107;SDS011;10712;52.944;9.098;2022-08-21T13:52:23;3.38;;;1.35;;
21107;SDS011;10712;52.944;9.098;2022-08-21T13:54:55;3.97;;;1.48;;
21107;SDS011;10712;52.944;9.098;2022-08-21T13:57:34;5.53;;;1.70;;
21107;SDS011;10712;52.944;9.098;2022-08-21T14:00:10;6.28;;;1.48;;
21107;SDS011;10712;52.944;9.098;2022-08-21T14:02:41;12.75;;;2.13;;
21107;SDS011;10712;52.944;9.098;2022-08-21T14:05:27;5.05;;;1.65;;
21107;SDS011;10712;52.944;9.098;2022-08-21T14:08:06;4.82;;;1.50;;
21107;SDS011;10712;52.944;9.098;2022-08-21T14:10:43;5.00;;;1.80;;
21107;SDS011;10712;52.944;9.098;2022-08-21T14:16:13;3.58;;;1.48;;
21107;SDS011;10712;52.944;9.098;2022-08-21T14:21:35;2.35;;;1.48;;
21107;SDS011;10712;52.944;9.098;2022-08-21T14:27:06;4.97;;;1.58;;
21107;SDS011;10712;52.944;9.098;2022-08-21T14:29:38;3.75;;;1.67;;
21107;SDS011;10712;52.944;9.098;2022-08-21T14:32:11;3.63;;;1.55;;
21107;SDS011;10712;52.944;9.098;2022-08-21T14:34:46;8.02;;;2.10;;
21107;SDS011;10712;52.944;9.098;2022-08-21T14:37:12;3.45;;;1.48;;
21107;SDS011;10712;52.944;9.098;2022-08-21T14:39:37;3.00;;;1.67;;
21107;SDS011;10712;52.944;9.098;2022-08-21T14:42:03;3.75;;;1.17;;
21107;SDS011;10712;52.944;9.098;2022-08-21T14:44:29;3.47;;;1.90;;
21107;SDS011;10712;52.944;9.098;2022-08-21T14:46:57;3.75;;;1.35;;
21107;SDS011;10712;52.944;9.098;2022-08-21T14:49:25;3.17;;;1.60;;
21107;SDS011;10712;52.944;9.098;2022-08-21T14:51:54;3.15;;;1.52;;
21107;SDS011;10712;52.944;9.098;2022-08-21T14:54:26;7.05;;;1.65;;
21107;SDS011;10712;52.944;9.098;2022-08-21T14:56:54;3.53;;;1.55;;
21107;SDS011;10712;52.944;9.098;2022-08-21T14:59:22;3.20;;;1.20;;
21107;SDS011;10712;52.944;9.098;2022-08-21T15:01:48;3.33;;;1.52;;
21107;SDS011;10712;52.944;9.098;2022-08-21T15:04:15;3.08;;;1.65;;
21107;SDS011;10712;52.944;9.098;2022-08-21T15:06:41;4.90;;;1.48;;
21107;SDS011;10712;52.944;9.098;2022-08-21T15:09:06;3.25;;;1.50;;
21107;SDS011;10712;52.944;9.098;2022-08-21T15:11:32;3.75;;;1.50;;
21107;SDS011;10712;52.944;9.098;2022-08-21T15:14:00;4.50;;;1.50;;
21107;SDS011;10712;52.944;9.098;2022-08-21T15:16:31;4.03;;;2.20;;
21107;SDS011;10712;52.944;9.098;2022-08-21T15:18:59;3.45;;;1.60;;
21107;SDS011;10712;52.944;9.098;2022-08-21T15:21:25;2.25;;;1.10;;
21107;SDS011;10712;52.944;9.098;2022-08-21T15:23:51;5.60;;;1.30;;
21107;SDS011;10712;52.944;9.098;2022-08-21T15:26:17;4.10;;;1.55;;
21107;SDS011;10712;52.944;9.098;2022-08-21T15:28:46;3.28;;;1.40;;
21107;SDS011;10712;52.944;9.098;2022-08-21T15:31:11;5.05;;;1.80;;
21107;SDS011;10712;52.944;9.098;2022-08-21T15:33:37;1.70;;;1.25;;
21107;SDS011;10712;52.944;9.098;2022-08-21T15:36:03;3.08;;;1.30;;
21107;SDS011;10712;52.944;9.098;2022-08-21T15:38:29;2.83;;;1.50;;
21107;SDS011;10712;52.944;9.098;2022-08-21T15:40:55;6.10;;;1.85;;
21107;SDS011;10712;52.944;9.098;2022-08-21T15:43:22;2.88;;;1.20;;
21107;SDS011;10712;52.944;9.098;2022-08-21T15:45:55;2.63;;;1.35;;
21107;SDS011;10712;52.944;9.098;2022-08-21T15:48:23;3.17;;;1.73;;
21107;SDS011;10712;52.944;9.098;2022-08-21T15:50:49;4.72;;;1.60;;
21107;SDS011;10712;52.944;9.098;2022-08-21T15:53:15;2.42;;;1.70;;
21107;SDS011;10712;52.944;9.098;2022-08-21T15:55:41;5.68;;;1.48;;
21107;SDS011;10712;52.944;9.098;2022-08-21T15:58:11;2.97;;;1.33;;
21107;SDS011;10712;52.944;9.098;2022-08-21T16:00:41;4.55;;;2.00;;
21107;SDS011;10712;52.944;9.098;2022-08-21T16:03:11;5.28;;;2.25;;
21107;SDS011;10712;52.944;9.098;2022-08-21T16:05:42;2.58;;;1.77;;
21107;SDS011;10712;52.944;9.098;2022-08-21T16:08:10;4.65;;;1.60;;
21107;SDS011;10712;52.944;9.098;2022-08-21T16:10:36;2.22;;;1.27;;
21107;SDS011;10712;52.944;9.098;2022-08-21T16:13:04;5.35;;;2.30;;
21107;SDS011;10712;52.944;9.098;2022-08-21T16:15:39;4.13;;;2.08;;
21107;SDS011;10712;52.944;9.098;2022-08-21T16:18:05;2.85;;;1.42;;
21107;SDS011;10712;52.944;9.098;2022-08-21T16:20:31;3.38;;;2.00;;
21107;SDS011;10712;52.944;9.098;2022-08-21T16:22:57;3.75;;;2.20;;
21107;SDS011;10712;52.944;9.098;2022-08-21T16:25:23;3.10;;;1.67;;
21107;SDS011;10712;52.944;9.098;2022-08-21T16:27:52;3.33;;;1.80;;
21107;SDS011;10712;52.944;9.098;2022-08-21T16:30:23;3.15;;;2.00;;
21107;SDS011;10712;52.944;9.098;2022-08-21T16:32:50;4.35;;;1.80;;
21107;SDS011;10712;52.944;9.098;2022-08-21T16:35:17;2.45;;;1.45;;
21107;SDS011;10712;52.944;9.098;2022-08-21T16:37:45;5.07;;;1.60;;
21107;SDS011;10712;52.944;9.098;2022-08-21T16:40:11;2.95;;;1.33;;
21107;SDS011;10712;52.944;9.098;2022-08-21T16:42:39;3.97;;;1.50;;
21107;SDS011;10712;52.944;9.098;2022-08-21T16:45:10;3.67;;;1.33;;
21107;SDS011;10712;52.944;9.098;2022-08-21T16:47:39;3.42;;;1.92;;
21107;SDS011;10712;52.944;9.098;2022-08-21T16:50:05;3.08;;;1.70;;
21107;SDS011;10712;52.944;9.098;2022-08-21T16:52:32;1.88;;;1.50;;